sensor_id;sensor_type;location;lat;lon;timestamp;pressure;altitude;pressure_sealevel;temperature;humidity
70411;BME280;57832;46.038;11.398;2022-10-16T00:01:14;97356.94;;;13.59;100.00
70411;BME280;57832;46.038;11.398;2022-10-16T00:03:41;97359.75;;;13.47;100.00
70411;BME280;57832;46.038;11.398;2022-10-16T00:06:08;97367.13;;;13.78;100.00
70411;BME280;57832;46.038;11.398;2022-10-16T00:08:34;97359.94;;;14.05;100.00
70411;BME280;57832;46.038;11.398;2022-10-16T00:11:02;97355.53;;;14.21;100.00
70411;BME280;57832;46.038;11.398;2022-10-16T00:13:29;97360.56;;;14.23;100.00
70411;BME280;57832;46.038;11.398;2022-10-16T00:15:56;97356.28;;;14.12;100.00
70411;BME280;57832;46.038;11.398;2022-10-16T00:18:23;97362.19;;;13.86;100.00
70411;BME280;57832;46.038;11.398;2022-10-16T00:20:49;97364.84;;;13.92;100.00
70411;BME280;57832;46.038;11.398;2022-10-16T00:23:14;97362.41;;;13.80;100.00
70411;BME280;57832;46.038;11.398;2022-10-16T00:25:40;97364.03;;;13.91;100.00
70411;BME280;57832;46.038;11.398;2022-10-16T00:28:05;97374.66;;;13.36;100.00
70411;BME280;57832;46.038;11.398;2022-10-16T00:30:31;97383.97;;;13.44;100.00
70411;BME280;57832;46.038;11.398;2022-10-16T00:32:56;97370.97;;;13.65;100.00
70411;BME280;57832;46.038;11.398;2022-10-16T00:35:22;97376.81;;;13.40;100.00
70411;BME280;57832;46.038;11.398;2022-10-16T00:37:47;97375.91;;;13.56;100.00
70411;BME280;57832;46.038;11.398;2022-10-16T00:40:13;97383.75;;;13.83;100.00
70411;BME280;57832;46.038;11.398;2022-10-16T00:42:38;97373.59;;;13.97;100.00
70411;BME280;57832;46.038;11.398;2022-10-16T00:45:04;97368.84;;;13.94;100.00
70411;BME280;57832;46.038;11.398;2022-10-16T00:47:34;97375.03;;;13.78;100.00
70411;BME280;57832;46.038;11.398;2022-10-16T00:50:08;97379.63;;;13.33;100.00
70411;BME280;57832;46.038;11.398;2022-10-16T00:52:34;97394.75;;;13.20;100.00
70411;BME280;57832;46.038;11.398;2022-10-16T00:55:02;97396.00;;;13.13;100.00
70411;BME280;57832;46.038;11.398;2022-10-16T00:57:28;97399.69;;;13.12;100.00
70411;BME280;57832;46.038;11.398;2022-10-16T00:59:54;97400.22;;;13.36;100.00
70411;BME280;57832;46.038;11.398;2022-10-16T01:02:20;97393.56;;;13.88;100.00
70411;BME280;57832;46.038;11.398;2022-10-16T01:04:48;97390.25;;;13.70;100.00
70411;BME280;57832;46.038;11.398;2022-10-16T01:07:34;97385.47;;;13.62;100.00
70411;BME280;57832;46.038;11.398;2022-10-16T01:10:37;97386.09;;;12.98;100.00
70411;BME280;57832;46.038;11.398;2022-10-16T01:13:07;97386.53;;;12.90;100.00
70411;BME280;57832;46.038;11.398;2022-10-16T01:15:41;97397.25;;;13.05;100.00
70411;BME280;57832;46.038;11.398;2022-10-16T01:18:28;97398.22;;;13.21;100.00
70411;BME280;57832;46.038;11.398;2022-10-16T01:21:11;97403.03;;;13.07;100.00
70411;BME280;57832;46.038;11.398;2022-10-16T01:26:48;97405.63;;;12.80;100.00
70411;BME280;57832;46.038;11.398;2022-10-16T01:29:30;97410.19;;;12.67;100.00
70411;BME280;57832;46.038;11.398;2022-10-16T01:32:02;97409.16;;;12.68;100.00
70411;BME280;57832;46.038;11.398;2022-10-16T01:34:48;97399.56;;;13.01;100.00
70411;BME280;57832;46.038;11.398;2022-10-16T01:37:29;97394.75;;;13.20;100.00
70411;BME280;57832;46.038;11.398;2022-10-16T01:40:00;97386.31;;;13.18;100.00
70411;BME280;57832;46.038;11.398;2022-10-16T01:42:35;97387.44;;;12.56;100.00
70411;BME280;57832;46.038;11.398;2022-10-16T01:45:05;97390.63;;;12.19;100.00
70411;BME280;57832;46.038;11.398;2022-10-16T01:47:35;97398.81;;;12.23;100.00
70411;BME280;57832;46.038;11.398;2022-10-16T01:50:02;97404.66;;;12.64;100.00
70411;BME280;57832;46.038;11.398;2022-10-16T01:52:32;97406.34;;;12.75;100.00
70411;BME280;57832;46.038;11.398;2022-10-16T01:55:02;97393.88;;;12.26;100.00
70411;BME280;57832;46.038;11.398;2022-10-16T01:57:29;97395.53;;;12.32;100.00
70411;BME280;57832;46.038;11.398;2022-10-16T02:00:02;97392.56;;;12.46;100.00
70411;BME280;57832;46.038;11.398;2022-10-16T02:02:30;97396.13;;;12.57;100.00
70411;BME280;57832;46.038;11.398;2022-10-16T02:05:21;97399.91;;;12.44;100.00
70411;BME280;57832;46.038;11.398;2022-10-16T02:07:49;97407.72;;;12.38;100.00
70411;BME280;57832;46.038;11.398;2022-10-16T02:10:16;97412.72;;;12.01;100.00
70411;BME280;57832;46.038;11.398;2022-10-16T02:12:48;97410.78;;;12.13;100.00
70411;BME280;57832;46.038;11.398;2022-10-16T02:15:15;97405.53;;;12.30;100.00
70411;BME280;57832;46.038;11.398;2022-10-16T02:17:41;97398.50;;;12.36;100.00
70411;BME280;57832;46.038;11.398;2022-10-16T02:20:07;97400.38;;;11.73;100.00
70411;BME280;57832;46.038;11.398;2022-10-16T02:22:40;97403.84;;;12.07;100.00
70411;BME280;57832;46.038;11.398;2022-10-16T02:25:10;97404.41;;;12.09;100.00
70411;BME280;57832;46.038;11.398;2022-10-16T02:27:56;97404.69;;;11.79;100.00
70411;BME280;57832;46.038;11.398;2022-10-16T02:32:49;97404.63;;;11.91;100.00
70411;BME280;57832;46.038;11.398;2022-10-16T02:35:17;97409.19;;;11.95;100.00
70411;BME280;57832;46.038;11.398;2022-10-16T02:37:44;97403.91;;;11.78;100.00
70411;BME280;57832;46.038;11.398;2022-10-16T02:40:11;97402.63;;;11.81;100.00
70411;BME280;57832;46.038;11.398;2022-10-16T02:42:38;97414.25;;;11.10;100.00
70411;BME280;57832;46.038;11.398;2022-10-16T02:45:06;97410.38;;;11.13;100.00
70411;BME280;57832;46.038;11.398;2022-10-16T02:47:32;97416.19;;;11.15;100.00
70411;BME280;57832;46.038;11.398;2022-10-16T02:49:57;97419.47;;;11.51;100.00
70411;BME280;57832;46.038;11.398;2022-10-16T02:52:23;97420.19;;;11.63;100.00
70411;BME280;57832;46.038;11.398;2022-10-16T02:54:48;97423.50;;;11.87;100.00
70411;BME280;57832;46.038;11.398;2022-10-16T02:57:14;97427.53;;;11.32;100.00
70411;BME280;57832;46.038;11.398;2022-10-16T02:59:39;97410.59;;;11.11;100.00
70411;BME280;57832;46.038;11.398;2022-10-16T03:02:05;97426.13;;;11.13;100.00
70411;BME280;57832;46.038;11.398;2022-10-16T03:04:31;97426.41;;;11.57;100.00
70411;BME280;57832;46.038;11.398;2022-10-16T03:06:56;97425.19;;;11.19;100.00
70411;BME280;57832;46.038;11.398;2022-10-16T03:09:22;97430.41;;;10.90;100.00
70411;BME280;57832;46.038;11.398;2022-10-16T03:11:47;97430.63;;;11.00;100.00
70411;BME280;57832;46.038;11.398;2022-10-16T03:14:13;97440.19;;;11.07;100.00
70411;BME280;57832;46.038;11.398;2022-10-16T03:16:38;97441.50;;;11.50;100.00
70411;BME280;57832;46.038;11.398;2022-10-16T03:19:04;97431.53;;;11.35;100.00
70411;BME280;57832;46.038;11.398;2022-10-16T03:21:30;97442.06;;;11.23;100.00
70411;BME280;57832;46.038;11.398;2022-10-16T03:23:55;97440.72;;;11.20;100.00
70411;BME280;57832;46.038;11.398;2022-10-16T03:26:21;97435.78;;;11.24;100.00
70411;BME280;57832;46.038;11.398;2022-10-16T03:28:46;97442.28;;;11.33;100.00
70411;BME280;57832;46.038;11.398;2022-10-16T03:31:12;97447.19;;;11.59;100.00
70411;BME280;57832;46.038;11.398;2022-10-16T03:33:37;97448.16;;;11.41;100.00
70411;BME280;57832;46.038;11.398;2022-10-16T03:36:03;97444.41;;;11.36;100.00
70411;BME280;57832;46.038;11.398;2022-10-16T03:38:28;97445.78;;;11.39;100.00
70411;BME280;57832;46.038;11.398;2022-10-16T03:40:54;97442.03;;;11.64;100.00
70411;BME280;57832;46.038;11.398;2022-10-16T03:43:20;97446.84;;;11.55;100.00
70411;BME280;57832;46.038;11.398;2022-10-16T03:45:45;97439.91;;;11.78;100.00
70411;BME280;57832;46.038;11.398;2022-10-16T03:48:11;97443.53;;;11.60;100.00
70411;BME280;57832;46.038;11.398;2022-10-16T03:50:36;97454.75;;;11.55;100.00
70411;BME280;57832;46.038;11.398;2022-10-16T03:53:02;97453.47;;;11.58;100.00
70411;BME280;57832;46.038;11.398;2022-10-16T03:55:28;97447.69;;;11.56;100.00
70411;BME280;57832;46.038;11.398;2022-10-16T03:57:53;97457.31;;;11.67;100.00
70411;BME280;57832;46.038;11.398;2022-10-16T04:00:19;97451.97;;;11.62;100.00
70411;BME280;57832;46.038;11.398;2022-10-16T04:02:44;97456.59;;;11.54;100.00
70411;BME280;57832;46.038;11.398;2022-10-16T04:05:10;97455.72;;;11.95;100.00
70411;BME280;57832;46.038;11.398;2022-10-16T04:07:36;97447.38;;;11.69;100.00
70411;BME280;57832;46.038;11.398;2022-10-16T04:10:02;97452.19;;;11.89;100.00
70411;BME280;57832;46.038;11.398;2022-10-16T04:12:27;97449.44;;;11.67;100.00
70411;BME280;57832;46.038;11.398;2022-10-16T04:14:53;97455.03;;;11.70;100.00
70411;BME280;57832;46.038;11.398;2022-10-16T04:17:18;97452.53;;;11.64;100.00
70411;BME280;57832;46.038;11.398;2022-10-16T04:19:44;97450.91;;;11.92;100.00
70411;BME280;57832;46.038;11.398;2022-10-16T04:22:10;97448.94;;;11.99;100.00
70411;BME280;57832;46.038;11.398;2022-10-16T04:24:35;97451.97;;;12.25;100.00
70411;BME280;57832;46.038;11.398;2022-10-16T04:27:01;97453.03;;;12.24;100.00
70411;BME280;57832;46.038;11.398;2022-10-16T04:29:26;97446.16;;;12.06;100.00
70411;BME280;57832;46.038;11.398;2022-10-16T04:31:52;97456.00;;;11.81;100.00
70411;BME280;57832;46.038;11.398;2022-10-16T04:34:18;97461.25;;;11.81;100.00
70411;BME280;57832;46.038;11.398;2022-10-16T04:36:43;97464.03;;;11.75;100.00
70411;BME280;57832;46.038;11.398;2022-10-16T04:39:09;97459.88;;;11.79;100.00
70411;BME280;57832;46.038;11.398;2022-10-16T04:41:34;97476.28;;;11.86;100.00
70411;BME280;57832;46.038;11.398;2022-10-16T04:44:00;97464.66;;;12.11;100.00
70411;BME280;57832;46.038;11.398;2022-10-16T04:46:26;97463.66;;;12.51;100.00
70411;BME280;57832;46.038;11.398;2022-10-16T04:48:51;97457.25;;;12.08;100.00
70411;BME280;57832;46.038;11.398;2022-10-16T04:51:17;97462.53;;;11.79;100.00
70411;BME280;57832;46.038;11.398;2022-10-16T04:53:44;97465.06;;;11.74;100.00
70411;BME280;57832;46.038;11.398;2022-10-16T04:56:09;97465.84;;;12.03;100.00
70411;BME280;57832;46.038;11.398;2022-10-16T04:58:35;97469.44;;;12.14;100.00
70411;BME280;57832;46.038;11.398;2022-10-16T05:01:00;97469.84;;;12.23;100.00
70411;BME280;57832;46.038;11.398;2022-10-16T05:03:26;97468.00;;;12.23;100.00
70411;BME280;57832;46.038;11.398;2022-10-16T05:05:51;97475.16;;;12.45;100.00
70411;BME280;57832;46.038;11.398;2022-10-16T05:08:17;97464.16;;;12.31;100.00
70411;BME280;57832;46.038;11.398;2022-10-16T05:10:43;97465.44;;;12.45;100.00
70411;BME280;57832;46.038;11.398;2022-10-16T05:13:09;97465.28;;;12.52;100.00
70411;BME280;57832;46.038;11.398;2022-10-16T05:15:35;97469.34;;;12.43;100.00
70411;BME280;57832;46.038;11.398;2022-10-16T05:18:00;97470.22;;;12.31;100.00
70411;BME280;57832;46.038;11.398;2022-10-16T05:20:26;97466.16;;;12.41;100.00
70411;BME280;57832;46.038;11.398;2022-10-16T05:22:51;97470.38;;;12.42;100.00
70411;BME280;57832;46.038;11.398;2022-10-16T05:25:17;97475.72;;;12.47;100.00
70411;BME280;57832;46.038;11.398;2022-10-16T05:27:47;97474.13;;;12.46;100.00
70411;BME280;57832;46.038;11.398;2022-10-16T05:30:13;97472.78;;;12.26;100.00
70411;BME280;57832;46.038;11.398;2022-10-16T05:32:38;97485.13;;;12.43;100.00
70411;BME280;57832;46.038;11.398;2022-10-16T05:35:04;97483.94;;;12.33;100.00
70411;BME280;57832;46.038;11.398;2022-10-16T05:37:30;97493.47;;;12.06;100.00
70411;BME280;57832;46.038;11.398;2022-10-16T05:39:55;97492.31;;;11.84;100.00
70411;BME280;57832;46.038;11.398;2022-10-16T05:42:21;97501.47;;;11.53;100.00
70411;BME280;57832;46.038;11.398;2022-10-16T05:44:46;97509.41;;;11.99;100.00
70411;BME280;57832;46.038;11.398;2022-10-16T05:47:13;97496.13;;;12.23;100.00
70411;BME280;57832;46.038;11.398;2022-10-16T05:49:39;97499.78;;;12.04;100.00
70411;BME280;57832;46.038;11.398;2022-10-16T05:52:05;97498.44;;;11.90;100.00
70411;BME280;57832;46.038;11.398;2022-10-16T05:54:30;97508.41;;;12.17;100.00
70411;BME280;57832;46.038;11.398;2022-10-16T05:56:56;97510.22;;;12.16;100.00
70411;BME280;57832;46.038;11.398;2022-10-16T05:59:21;97506.22;;;11.97;100.00
70411;BME280;57832;46.038;11.398;2022-10-16T06:01:47;97507.25;;;12.13;100.00
70411;BME280;57832;46.038;11.398;2022-10-16T06:04:12;97500.56;;;12.22;100.00
70411;BME280;57832;46.038;11.398;2022-10-16T06:06:38;97505.75;;;12.00;100.00
70411;BME280;57832;46.038;11.398;2022-10-16T06:09:03;97508.41;;;11.88;100.00
70411;BME280;57832;46.038;11.398;2022-10-16T06:11:31;97522.31;;;11.31;100.00
70411;BME280;57832;46.038;11.398;2022-10-16T06:13:59;97528.34;;;11.31;100.00
70411;BME280;57832;46.038;11.398;2022-10-16T06:16:35;97535.81;;;11.92;100.00
70411;BME280;57832;46.038;11.398;2022-10-16T06:19:01;97534.06;;;12.27;100.00
70411;BME280;57832;46.038;11.398;2022-10-16T06:21:28;97536.50;;;11.99;100.00
70411;BME280;57832;46.038;11.398;2022-10-16T06:23:56;97543.94;;;12.02;100.00
70411;BME280;57832;46.038;11.398;2022-10-16T06:26:23;97547.06;;;12.33;100.00
70411;BME280;57832;46.038;11.398;2022-10-16T06:28:49;97543.22;;;12.24;100.00
70411;BME280;57832;46.038;11.398;2022-10-16T06:31:16;97550.78;;;12.20;100.00
70411;BME280;57832;46.038;11.398;2022-10-16T06:33:42;97548.50;;;12.58;100.00
70411;BME280;57832;46.038;11.398;2022-10-16T06:36:13;97543.00;;;12.60;100.00
70411;BME280;57832;46.038;11.398;2022-10-16T06:38:40;97547.31;;;12.66;100.00
70411;BME280;57832;46.038;11.398;2022-10-16T06:41:07;97556.16;;;12.60;100.00
70411;BME280;57832;46.038;11.398;2022-10-16T06:43:34;97561.88;;;12.23;100.00
70411;BME280;57832;46.038;11.398;2022-10-16T06:46:04;97569.75;;;11.94;100.00
70411;BME280;57832;46.038;11.398;2022-10-16T06:48:30;97579.22;;;12.07;100.00
70411;BME280;57832;46.038;11.398;2022-10-16T06:51:03;97578.56;;;12.45;100.00
70411;BME280;57832;46.038;11.398;2022-10-16T06:53:31;97580.41;;;12.79;100.00
70411;BME280;57832;46.038;11.398;2022-10-16T06:55:57;97580.88;;;12.76;100.00
70411;BME280;57832;46.038;11.398;2022-10-16T06:58:23;97579.34;;;12.97;100.00
70411;BME280;57832;46.038;11.398;2022-10-16T07:00:55;97584.47;;;13.03;100.00
70411;BME280;57832;46.038;11.398;2022-10-16T07:03:22;97586.03;;;13.04;100.00
70411;BME280;57832;46.038;11.398;2022-10-16T07:05:47;97591.22;;;12.99;100.00
70411;BME280;57832;46.038;11.398;2022-10-16T07:08:13;97593.47;;;13.08;100.00
70411;BME280;57832;46.038;11.398;2022-10-16T07:10:39;97587.38;;;13.24;100.00
70411;BME280;57832;46.038;11.398;2022-10-16T07:13:04;97587.84;;;13.21;100.00
70411;BME280;57832;46.038;11.398;2022-10-16T07:15:30;97589.91;;;13.19;100.00
70411;BME280;57832;46.038;11.398;2022-10-16T07:17:56;97591.72;;;13.35;100.00
70411;BME280;57832;46.038;11.398;2022-10-16T07:20:22;97590.34;;;13.50;100.00
70411;BME280;57832;46.038;11.398;2022-10-16T07:22:47;97595.16;;;13.53;100.00
70411;BME280;57832;46.038;11.398;2022-10-16T07:25:13;97601.13;;;13.48;100.00
70411;BME280;57832;46.038;11.398;2022-10-16T07:27:38;97599.56;;;13.69;100.00
70411;BME280;57832;46.038;11.398;2022-10-16T07:30:04;97598.19;;;13.67;100.00
70411;BME280;57832;46.038;11.398;2022-10-16T07:32:31;97595.44;;;13.57;100.00
70411;BME280;57832;46.038;11.398;2022-10-16T07:34:57;97597.84;;;13.58;100.00
70411;BME280;57832;46.038;11.398;2022-10-16T07:37:22;97608.47;;;13.07;100.00
70411;BME280;57832;46.038;11.398;2022-10-16T07:39:48;97621.00;;;13.00;100.00
70411;BME280;57832;46.038;11.398;2022-10-16T07:42:14;97621.84;;;13.23;100.00
70411;BME280;57832;46.038;11.398;2022-10-16T07:44:40;97620.28;;;13.83;100.00
70411;BME280;57832;46.038;11.398;2022-10-16T07:47:06;97621.88;;;14.11;100.00
70411;BME280;57832;46.038;11.398;2022-10-16T07:49:32;97615.44;;;14.24;100.00
70411;BME280;57832;46.038;11.398;2022-10-16T07:51:57;97620.19;;;14.00;100.00
70411;BME280;57832;46.038;11.398;2022-10-16T07:54:23;97619.38;;;13.99;100.00
70411;BME280;57832;46.038;11.398;2022-10-16T07:56:48;97628.31;;;13.93;100.00
70411;BME280;57832;46.038;11.398;2022-10-16T07:59:14;97638.84;;;13.93;100.00
70411;BME280;57832;46.038;11.398;2022-10-16T08:01:39;97636.19;;;14.43;100.00
70411;BME280;57832;46.038;11.398;2022-10-16T08:04:08;97622.72;;;14.66;100.00
70411;BME280;57832;46.038;11.398;2022-10-16T08:06:38;97629.34;;;14.69;100.00
70411;BME280;57832;46.038;11.398;2022-10-16T08:09:05;97630.44;;;14.73;100.00
70411;BME280;57832;46.038;11.398;2022-10-16T08:11:32;97636.59;;;14.84;100.00
70411;BME280;57832;46.038;11.398;2022-10-16T08:13:57;97622.88;;;14.87;100.00
70411;BME280;57832;46.038;11.398;2022-10-16T08:16:23;97618.84;;;15.17;100.00
70411;BME280;57832;46.038;11.398;2022-10-16T08:18:49;97612.59;;;15.33;100.00
70411;BME280;57832;46.038;11.398;2022-10-16T08:21:17;97612.47;;;15.08;100.00
70411;BME280;57832;46.038;11.398;2022-10-16T08:23:43;97611.56;;;14.92;100.00
70411;BME280;57832;46.038;11.398;2022-10-16T08:26:10;97617.41;;;14.99;100.00
70411;BME280;57832;46.038;11.398;2022-10-16T08:28:36;97625.53;;;14.92;100.00
70411;BME280;57832;46.038;11.398;2022-10-16T08:31:28;97614.09;;;15.19;100.00
70411;BME280;57832;46.038;11.398;2022-10-16T08:33:53;97610.34;;;15.63;100.00
70411;BME280;57832;46.038;11.398;2022-10-16T08:36:19;97604.47;;;16.19;100.00
70411;BME280;57832;46.038;11.398;2022-10-16T08:38:47;97598.44;;;17.01;100.00
70411;BME280;57832;46.038;11.398;2022-10-16T08:41:22;97594.38;;;18.05;100.00
70411;BME280;57832;46.038;11.398;2022-10-16T08:49:26;97585.09;;;18.02;100.00
70411;BME280;57832;46.038;11.398;2022-10-16T08:51:52;97587.69;;;17.52;100.00
70411;BME280;57832;46.038;11.398;2022-10-16T08:54:41;97586.63;;;18.14;100.00
70411;BME280;57832;46.038;11.398;2022-10-16T08:57:16;97581.69;;;18.36;100.00
70411;BME280;57832;46.038;11.398;2022-10-16T08:59:44;97577.66;;;18.44;100.00
70411;BME280;57832;46.038;11.398;2022-10-16T09:02:27;97574.84;;;18.30;100.00
70411;BME280;57832;46.038;11.398;2022-10-16T09:05:43;97579.09;;;18.95;100.00
70411;BME280;57832;46.038;11.398;2022-10-16T09:07:57;97574.09;;;21.36;100.00
70411;BME280;57832;46.038;11.398;2022-10-16T09:10:43;97571.00;;;23.21;100.00
70411;BME280;57832;46.038;11.398;2022-10-16T09:13:26;97569.19;;;20.50;100.00
70411;BME280;57832;46.038;11.398;2022-10-16T09:18:54;97571.34;;;19.71;100.00
70411;BME280;57832;46.038;11.398;2022-10-16T09:21:25;97560.28;;;20.74;100.00
70411;BME280;57832;46.038;11.398;2022-10-16T09:23:54;97565.69;;;20.68;100.00
70411;BME280;57832;46.038;11.398;2022-10-16T09:26:22;97554.63;;;21.50;100.00
70411;BME280;57832;46.038;11.398;2022-10-16T09:28:48;97559.19;;;21.35;100.00
70411;BME280;57832;46.038;11.398;2022-10-16T09:31:16;97551.31;;;20.69;100.00
70411;BME280;57832;46.038;11.398;2022-10-16T09:33:44;97555.44;;;20.43;100.00
70411;BME280;57832;46.038;11.398;2022-10-16T09:36:11;97554.53;;;21.27;100.00
70411;BME280;57832;46.038;11.398;2022-10-16T09:38:38;97555.97;;;23.51;100.00
70411;BME280;57832;46.038;11.398;2022-10-16T09:43:48;97560.25;;;22.81;100.00
70411;BME280;57832;46.038;11.398;2022-10-16T09:48:50;97549.50;;;21.53;100.00
70411;BME280;57832;46.038;11.398;2022-10-16T09:51:26;97555.56;;;21.82;100.00
70411;BME280;57832;46.038;11.398;2022-10-16T09:54:14;97541.94;;;21.83;100.00
70411;BME280;57832;46.038;11.398;2022-10-16T09:56:40;97549.50;;;21.67;100.00
70411;BME280;57832;46.038;11.398;2022-10-16T10:01:46;97552.19;;;22.49;100.00
70411;BME280;57832;46.038;11.398;2022-10-16T10:04:12;97551.25;;;23.08;100.00
70411;BME280;57832;46.038;11.398;2022-10-16T10:06:49;97548.03;;;22.88;100.00
70411;BME280;57832;46.038;11.398;2022-10-16T10:09:37;97549.28;;;22.60;100.00
70411;BME280;57832;46.038;11.398;2022-10-16T10:12:18;97545.78;;;22.82;100.00
70411;BME280;57832;46.038;11.398;2022-10-16T10:14:47;97545.47;;;21.93;100.00
70411;BME280;57832;46.038;11.398;2022-10-16T10:19:52;97541.44;;;22.63;100.00
70411;BME280;57832;46.038;11.398;2022-10-16T10:28:13;97535.63;;;23.01;100.00
70411;BME280;57832;46.038;11.398;2022-10-16T10:36:39;97517.91;;;23.63;100.00
70411;BME280;57832;46.038;11.398;2022-10-16T10:39:35;97517.56;;;23.56;100.00
70411;BME280;57832;46.038;11.398;2022-10-16T10:45:04;97514.16;;;23.15;100.00
70411;BME280;57832;46.038;11.398;2022-10-16T10:50:24;97511.06;;;23.40;100.00
70411;BME280;57832;46.038;11.398;2022-10-16T10:53:02;97509.63;;;23.33;100.00
70411;BME280;57832;46.038;11.398;2022-10-16T10:55:43;97502.03;;;24.02;100.00
70411;BME280;57832;46.038;11.398;2022-10-16T11:01:30;97507.44;;;24.58;100.00
70411;BME280;57832;46.038;11.398;2022-10-16T11:06:51;97492.53;;;23.69;100.00
70411;BME280;57832;46.038;11.398;2022-10-16T11:09:25;97492.06;;;23.85;100.00
70411;BME280;57832;46.038;11.398;2022-10-16T11:12:24;97492.53;;;23.78;100.00
70411;BME280;57832;46.038;11.398;2022-10-16T11:15:25;97494.91;;;23.97;100.00
70411;BME280;57832;46.038;11.398;2022-10-16T11:20:25;97496.81;;;22.18;100.00
70411;BME280;57832;46.038;11.398;2022-10-16T11:22:56;97482.72;;;23.38;100.00
70411;BME280;57832;46.038;11.398;2022-10-16T11:25:28;97484.94;;;22.96;100.00
70411;BME280;57832;46.038;11.398;2022-10-16T11:28:07;97478.19;;;23.65;100.00
70411;BME280;57832;46.038;11.398;2022-10-16T11:30:46;97479.47;;;23.77;100.00
70411;BME280;57832;46.038;11.398;2022-10-16T11:35:49;97474.41;;;24.19;100.00
70411;BME280;57832;46.038;11.398;2022-10-16T11:38:32;97471.78;;;24.58;100.00
70411;BME280;57832;46.038;11.398;2022-10-16T11:41:10;97465.31;;;24.67;100.00
70411;BME280;57832;46.038;11.398;2022-10-16T11:43:41;97461.13;;;25.47;100.00
70411;BME280;57832;46.038;11.398;2022-10-16T11:46:12;97451.63;;;24.43;100.00
70411;BME280;57832;46.038;11.398;2022-10-16T11:52:01;97452.53;;;23.82;100.00
70411;BME280;57832;46.038;11.398;2022-10-16T11:54:40;97451.41;;;24.00;100.00
70411;BME280;57832;46.038;11.398;2022-10-16T11:57:39;97459.13;;;24.76;98.51
70411;BME280;57832;46.038;11.398;2022-10-16T12:00:10;97449.63;;;25.08;81.76
70411;BME280;57832;46.038;11.398;2022-10-16T12:03:08;97453.84;;;24.88;76.17
70411;BME280;57832;46.038;11.398;2022-10-16T12:13:43;97437.56;;;24.63;100.00
70411;BME280;57832;46.038;11.398;2022-10-16T12:18:38;97438.66;;;23.97;99.37
70411;BME280;57832;46.038;11.398;2022-10-16T12:21:04;97437.81;;;24.23;90.55
70411;BME280;57832;46.038;11.398;2022-10-16T12:23:54;97436.94;;;23.49;74.24
70411;BME280;57832;46.038;11.398;2022-10-16T12:26:38;97441.34;;;24.06;68.80
70411;BME280;57832;46.038;11.398;2022-10-16T12:29:40;97431.72;;;23.87;73.12
70411;BME280;57832;46.038;11.398;2022-10-16T12:32:40;97438.81;;;23.75;69.67
70411;BME280;57832;46.038;11.398;2022-10-16T12:35:05;97435.22;;;24.44;69.93
70411;BME280;57832;46.038;11.398;2022-10-16T12:37:34;97437.06;;;24.61;70.18
70411;BME280;57832;46.038;11.398;2022-10-16T12:40:34;97436.84;;;24.84;76.55
70411;BME280;57832;46.038;11.398;2022-10-16T12:42:58;97432.81;;;24.60;83.57
70411;BME280;57832;46.038;11.398;2022-10-16T12:47:56;97435.38;;;24.48;92.08
70411;BME280;57832;46.038;11.398;2022-10-16T12:53:00;97437.53;;;24.72;92.72
70411;BME280;57832;46.038;11.398;2022-10-16T12:55:26;97437.13;;;24.44;96.76
70411;BME280;57832;46.038;11.398;2022-10-16T13:01:10;97428.88;;;25.26;81.27
70411;BME280;57832;46.038;11.398;2022-10-16T13:06:36;97437.31;;;24.38;100.00
70411;BME280;57832;46.038;11.398;2022-10-16T13:12:09;97443.16;;;24.41;96.63
70411;BME280;57832;46.038;11.398;2022-10-16T13:15:01;97447.38;;;24.42;96.49
70411;BME280;57832;46.038;11.398;2022-10-16T13:17:30;97450.44;;;24.31;99.08
70411;BME280;57832;46.038;11.398;2022-10-16T13:28:19;97452.84;;;23.71;100.00
70411;BME280;57832;46.038;11.398;2022-10-16T13:30:53;97460.88;;;23.71;100.00
70411;BME280;57832;46.038;11.398;2022-10-16T13:36:00;97463.69;;;23.49;100.00
70411;BME280;57832;46.038;11.398;2022-10-16T13:38:28;97469.00;;;23.23;100.00
70411;BME280;57832;46.038;11.398;2022-10-16T13:40:58;97467.94;;;22.83;100.00
70411;BME280;57832;46.038;11.398;2022-10-16T13:43:34;97467.38;;;23.13;100.00
70411;BME280;57832;46.038;11.398;2022-10-16T13:46:10;97466.72;;;22.98;100.00
70411;BME280;57832;46.038;11.398;2022-10-16T13:48:37;97474.56;;;22.86;100.00
70411;BME280;57832;46.038;11.398;2022-10-16T13:51:04;97473.69;;;22.68;100.00
70411;BME280;57832;46.038;11.398;2022-10-16T13:53:32;97469.34;;;22.81;100.00
70411;BME280;57832;46.038;11.398;2022-10-16T13:55:58;97473.22;;;22.75;100.00
70411;BME280;57832;46.038;11.398;2022-10-16T13:58:25;97479.72;;;22.51;100.00
70411;BME280;57832;46.038;11.398;2022-10-16T14:01:18;97481.50;;;22.64;100.00
70411;BME280;57832;46.038;11.398;2022-10-16T14:03:45;97484.22;;;22.19;100.00
70411;BME280;57832;46.038;11.398;2022-10-16T14:06:17;97489.41;;;22.15;100.00
70411;BME280;57832;46.038;11.398;2022-10-16T14:08:46;97483.16;;;22.43;100.00
70411;BME280;57832;46.038;11.398;2022-10-16T14:11:21;97485.16;;;22.37;100.00
70411;BME280;57832;46.038;11.398;2022-10-16T14:13:49;97490.41;;;22.28;100.00
70411;BME280;57832;46.038;11.398;2022-10-16T14:16:23;97490.31;;;22.11;100.00
70411;BME280;57832;46.038;11.398;2022-10-16T14:19:02;97493.22;;;22.23;100.00
70411;BME280;57832;46.038;11.398;2022-10-16T14:21:30;97491.09;;;22.11;100.00
70411;BME280;57832;46.038;11.398;2022-10-16T14:23:57;97488.06;;;22.04;100.00
70411;BME280;57832;46.038;11.398;2022-10-16T14:26:25;97493.50;;;21.76;100.00